Time;durP1;ratioP1;P1;durP2;ratioP2;P2;SDS_P1;SDS_P2;PMS_P1;PMS_P2;Temp;Humidity;BMP_temperature;BMP_pressure;BME280_temperature;BME280_humidity;BME280_pressure;Samples;Min_cycle;Max_cycle;Signal;HPM_P1;HPM_P2
2023/01/16 00:01:32;;;;;;;0.90;0.90;;;5.50;99.90;;;;;;5033143;28;20206;-82
2023/01/16 00:04:00;;;;;;;1.65;1.23;;;5.50;99.90;;;;;;5032969;28;20202;-82
2023/01/16 00:06:30;;;;;;;0.75;0.75;;;5.50;99.90;;;;;;5032676;28;20265;-80
2023/01/16 00:08:58;;;;;;;1.98;1.15;;;5.50;99.90;;;;;;5032488;28;20266;-80
2023/01/16 00:11:26;;;;;;;0.90;0.90;;;5.40;99.90;;;;;;5032855;28;20215;-80
2023/01/16 00:13:55;;;;;;;0.93;0.93;;;5.40;99.90;;;;;;5033062;28;20221;-83
2023/01/16 00:16:23;;;;;;;1.00;1.00;;;5.40;99.90;;;;;;5048830;28;20260;-83
2023/01/16 00:18:52;;;;;;;0.95;0.95;;;5.40;99.90;;;;;;5052523;28;20210;-82
2023/01/16 00:21:25;;;;;;;0.90;0.90;;;5.40;99.90;;;;;;5052975;28;20214;-80
2023/01/16 00:23:56;;;;;;;0.88;0.88;;;5.40;99.90;;;;;;5052517;28;20213;-82
2023/01/16 00:26:25;;;;;;;0.93;0.93;;;5.40;99.90;;;;;;5052531;28;20238;-82
2023/01/16 00:28:53;;;;;;;1.23;1.13;;;5.40;99.90;;;;;;5052728;28;20214;-82
2023/01/16 00:31:23;;;;;;;0.80;0.80;;;5.30;99.90;;;;;;5052685;28;20220;-82
2023/01/16 00:33:54;;;;;;;1.15;1.05;;;5.40;99.90;;;;;;5052504;28;20228;-82
2023/01/16 00:36:22;;;;;;;0.77;0.77;;;5.30;99.90;;;;;;5052550;28;20236;-82
2023/01/16 00:38:51;;;;;;;0.93;0.93;;;5.30;99.90;;;;;;5052615;28;20209;-82
2023/01/16 00:41:20;;;;;;;0.85;0.85;;;5.30;99.90;;;;;;5052893;28;20213;-82
2023/01/16 00:43:49;;;;;;;1.08;0.98;;;5.30;99.90;;;;;;5052668;28;20222;-79
2023/01/16 00:46:17;;;;;;;1.02;1.00;;;5.30;99.90;;;;;;5051596;28;20233;-82
2023/01/16 00:48:45;;;;;;;1.17;1.10;;;5.30;99.90;;;;;;5053186;28;20244;-83
2023/01/16 00:51:13;;;;;;;2.28;1.08;;;5.30;99.90;;;;;;5054818;28;20198;-82
2023/01/16 00:53:41;;;;;;;0.98;0.98;;;5.30;99.90;;;;;;5054608;28;20205;-83
2023/01/16 00:56:10;;;;;;;1.00;1.00;;;5.30;99.90;;;;;;5054403;28;20225;-82
2023/01/16 00:58:39;;;;;;;1.30;1.20;;;5.30;99.90;;;;;;5054082;28;20205;-81
2023/01/16 01:01:08;;;;;;;0.63;0.63;;;5.20;99.90;;;;;;5054757;28;20212;-81
2023/01/16 01:03:36;;;;;;;3.13;1.00;;;5.20;99.90;;;;;;5054222;28;20232;-82
2023/01/16 01:06:07;;;;;;;1.27;1.17;;;5.20;99.90;;;;;;5054186;28;20225;-81
2023/01/16 01:08:35;;;;;;;1.38;1.27;;;5.20;99.90;;;;;;5053973;28;20210;-82
2023/01/16 01:11:08;;;;;;;1.05;0.95;;;5.30;99.90;;;;;;5054167;28;20221;-82
2023/01/16 01:13:36;;;;;;;1.30;1.20;;;5.20;99.90;;;;;;5054074;28;20220;-81
2023/01/16 01:16:08;;;;;;;1.90;1.50;;;5.30;99.90;;;;;;5040528;28;20240;-81
2023/01/16 01:18:42;;;;;;;0.85;0.85;;;5.30;99.90;;;;;;5034076;28;20206;-80
2023/01/16 01:21:11;;;;;;;1.13;0.98;;;5.20;99.90;;;;;;5034364;28;20277;-82
2023/01/16 01:23:39;;;;;;;0.80;0.80;;;5.30;99.90;;;;;;5033953;28;20206;-82
2023/01/16 01:26:09;;;;;;;0.52;0.52;;;5.30;99.90;;;;;;5033745;28;20233;-82
2023/01/16 01:28:37;;;;;;;0.77;0.77;;;5.30;99.90;;;;;;5033333;28;20210;-82
2023/01/16 01:31:09;;;;;;;0.60;0.60;;;5.30;99.90;;;;;;5033666;28;20214;-82
2023/01/16 01:33:38;;;;;;;0.80;0.80;;;5.30;99.90;;;;;;5034103;28;20256;-82
2023/01/16 01:36:08;;;;;;;1.35;1.25;;;5.30;99.90;;;;;;5033858;28;20230;-81
2023/01/16 01:38:36;;;;;;;0.73;0.60;;;5.30;99.90;;;;;;5033474;28;20217;-82
2023/01/16 01:41:05;;;;;;;0.88;0.88;;;5.30;99.90;;;;;;5034008;28;20210;-82
2023/01/16 01:43:43;;;;;;;0.63;0.55;;;5.30;99.90;;;;;;5033707;28;20265;-82
2023/01/16 01:46:23;;;;;;;0.52;0.52;;;5.30;99.90;;;;;;5033614;28;20313;-82
2023/01/16 01:48:56;;;;;;;1.17;0.98;;;5.30;99.90;;;;;;5033644;28;20212;-81
2023/01/16 01:51:28;;;;;;;0.55;0.55;;;5.30;99.90;;;;;;5033886;28;20214;-81
2023/01/16 01:54:00;;;;;;;0.77;0.77;;;5.30;99.90;;;;;;5033957;28;20198;-81
2023/01/16 01:56:33;;;;;;;0.93;0.93;;;5.30;99.90;;;;;;5033571;28;20236;-82
2023/01/16 01:59:07;;;;;;;0.80;0.80;;;5.30;99.90;;;;;;5033550;28;20206;-81
2023/01/16 02:01:38;;;;;;;0.80;0.70;;;5.30;99.90;;;;;;5033842;28;20202;-82
2023/01/16 02:04:10;;;;;;;1.77;0.80;;;5.30;99.90;;;;;;5033651;28;20252;-81
2023/01/16 02:06:43;;;;;;;0.50;0.50;;;5.30;99.90;;;;;;5033258;28;20234;-80
2023/01/16 02:09:13;;;;;;;0.40;0.40;;;5.30;99.90;;;;;;5033296;28;20221;-80
2023/01/16 02:11:46;;;;;;;1.58;0.93;;;5.30;99.90;;;;;;5033946;28;20203;-80
2023/01/16 02:14:20;;;;;;;0.93;0.75;;;5.30;99.90;;;;;;5033509;28;20202;-82
2023/01/16 02:20:14;;;;;;;0.63;0.40;;;5.30;99.90;;;;;;4972559;28;20204;-83
2023/01/16 02:23:22;;;;;;;0.50;0.50;;;5.30;99.90;;;;;;4972798;28;20212;-79
2023/01/16 02:26:35;;;;;;;0.85;0.68;;;5.30;99.90;;;;;;4978841;28;20231;-80
2023/01/16 02:29:36;;;;;;;0.90;0.70;;;5.30;99.90;;;;;;5053200;28;20212;-80
2023/01/16 02:32:17;;;;;;;0.63;0.63;;;5.30;99.90;;;;;;5053062;28;20214;-80
2023/01/16 02:35:00;;;;;;;0.88;0.88;;;5.30;99.90;;;;;;5053155;28;20217;-79
2023/01/16 02:37:39;;;;;;;1.27;0.90;;;5.30;99.90;;;;;;5052461;28;20249;-80
2023/01/16 02:40:18;;;;;;;1.08;0.90;;;5.30;99.90;;;;;;5053424;28;20198;-82
2023/01/16 02:42:57;;;;;;;0.45;0.45;;;5.30;99.90;;;;;;5053181;28;20216;-82
2023/01/16 02:45:33;;;;;;;0.80;0.75;;;5.30;99.90;;;;;;5053036;28;20197;-82
2023/01/16 02:48:11;;;;;;;1.52;0.80;;;5.30;99.90;;;;;;5052357;28;20217;-82
2023/01/16 02:50:48;;;;;;;0.55;0.55;;;5.30;99.90;;;;;;5053107;28;20209;-82
2023/01/16 02:53:22;;;;;;;0.52;0.52;;;5.30;99.90;;;;;;5087366;23;20239;-82
2023/01/16 02:55:54;;;;;;;0.50;0.50;;;5.30;99.90;;;;;;5073216;28;20185;-82
2023/01/16 02:58:23;;;;;;;0.47;0.40;;;5.30;99.90;;;;;;5072356;28;20263;-82
2023/01/16 03:00:55;;;;;;;0.32;0.32;;;5.30;99.90;;;;;;5072780;28;20269;-82
2023/01/16 03:03:38;;;;;;;1.70;0.90;;;5.30;99.90;;;;;;5087067;28;20314;-82
2023/01/16 03:06:28;;;;;;;0.63;0.63;;;5.30;99.90;;;;;;5093314;28;20205;-82
2023/01/16 03:09:11;;;;;;;0.77;0.70;;;5.30;99.90;;;;;;5093101;28;20204;-82
2023/01/16 03:11:47;;;;;;;0.50;0.50;;;5.30;99.90;;;;;;5096005;28;20212;-84
2023/01/16 03:14:29;;;;;;;2.63;0.95;;;5.30;99.90;;;;;;5096790;28;20200;-84
2023/01/16 03:17:14;;;;;;;0.50;0.50;;;5.30;99.90;;;;;;5096223;28;20193;-82
2023/01/16 03:20:02;;;;;;;2.15;0.70;;;5.20;99.90;;;;;;5096558;28;20287;-82
2023/01/16 03:22:39;;;;;;;0.80;0.80;;;5.20;99.90;;;;;;5096383;28;20227;-82
2023/01/16 03:25:20;;;;;;;0.68;0.68;;;5.20;99.90;;;;;;5096417;28;20211;-82
2023/01/16 03:27:57;;;;;;;1.00;0.80;;;5.20;99.90;;;;;;5095774;28;20248;-82
2023/01/16 03:30:32;;;;;;;0.82;0.43;;;5.30;99.90;;;;;;5096055;28;20212;-83
2023/01/16 03:33:06;;;;;;;1.40;0.52;;;5.20;99.90;;;;;;5096209;28;20223;-83
2023/01/16 03:35:43;;;;;;;0.88;0.68;;;5.30;99.90;;;;;;5096070;28;20196;-82
2023/01/16 03:38:13;;;;;;;0.30;0.30;;;5.20;99.90;;;;;;5095948;28;20224;-82
2023/01/16 03:40:44;;;;;;;0.40;0.40;;;5.30;99.90;;;;;;5096117;28;20204;-82
2023/01/16 03:43:18;;;;;;;0.55;0.55;;;5.30;99.90;;;;;;5095841;28;20307;-82
2023/01/16 03:45:52;;;;;;;0.30;0.30;;;5.30;99.90;;;;;;5096448;28;20284;-82
2023/01/16 03:48:30;;;;;;;0.75;0.65;;;5.30;99.90;;;;;;5095382;28;20214;-82
2023/01/16 03:51:05;;;;;;;0.70;0.70;;;5.30;99.90;;;;;;5096206;28;20205;-82
2023/01/16 03:53:36;;;;;;;0.88;0.43;;;5.30;99.90;;;;;;5095746;28;20315;-82
2023/01/16 03:56:13;;;;;;;0.52;0.52;;;5.30;99.90;;;;;;5096399;28;20215;-83
2023/01/16 03:58:52;;;;;;;0.57;0.57;;;5.30;99.90;;;;;;5095590;28;20318;-82
2023/01/16 04:01:27;;;;;;;0.60;0.50;;;5.30;99.90;;;;;;5096267;28;20205;-82
2023/01/16 04:04:02;;;;;;;1.05;0.80;;;5.30;99.90;;;;;;5095600;28;20269;-83
2023/01/16 04:06:36;;;;;;;0.75;0.68;;;5.30;99.90;;;;;;5095838;28;20203;-83
2023/01/16 04:09:10;;;;;;;0.70;0.70;;;5.40;99.90;;;;;;5095650;28;20219;-82
2023/01/16 04:11:41;;;;;;;1.27;0.68;;;5.30;99.90;;;;;;5095675;28;20232;-82
2023/01/16 04:14:13;;;;;;;1.27;0.50;;;5.30;99.90;;;;;;5095563;28;20197;-82
2023/01/16 04:16:42;;;;;;;0.70;0.70;;;5.30;99.90;;;;;;5076659;28;20202;-83
2023/01/16 04:19:14;;;;;;;2.35;0.85;;;5.30;99.90;;;;;;5075004;28;20205;-83
2023/01/16 04:21:47;;;;;;;0.50;0.50;;;5.30;99.90;;;;;;5074445;28;20205;-83
2023/01/16 04:24:16;;;;;;;0.70;0.65;;;5.30;99.90;;;;;;5074212;28;20209;-83
2023/01/16 04:26:44;;;;;;;0.60;0.60;;;5.30;99.90;;;;;;5075030;28;20216;-82
2023/01/16 04:29:13;;;;;;;0.65;0.65;;;5.30;99.90;;;;;;5074832;28;20211;-83
2023/01/16 04:31:41;;;;;;;0.82;0.55;;;5.30;99.90;;;;;;5074583;28;20213;-83
2023/01/16 04:34:09;;;;;;;1.38;1.05;;;5.30;99.90;;;;;;5074584;28;20216;-82
2023/01/16 04:36:37;;;;;;;0.73;0.73;;;5.30;99.90;;;;;;5074657;28;20201;-82
2023/01/16 04:39:07;;;;;;;2.63;1.05;;;5.30;99.90;;;;;;5075038;28;20211;-82
2023/01/16 04:41:40;;;;;;;0.50;0.50;;;5.30;99.90;;;;;;5074788;28;20205;-82
2023/01/16 04:44:10;;;;;;;1.15;0.93;;;5.30;99.90;;;;;;5074660;28;20221;-82
2023/01/16 04:46:38;;;;;;;2.10;0.95;;;5.30;99.90;;;;;;5074374;28;20201;-82
2023/01/16 04:49:07;;;;;;;2.15;0.90;;;5.30;99.90;;;;;;5074321;28;20225;-82
2023/01/16 04:51:36;;;;;;;1.02;0.90;;;5.30;99.90;;;;;;5074685;28;20215;-82
2023/01/16 04:54:05;;;;;;;1.73;0.90;;;5.20;99.90;;;;;;5074206;28;20243;-83
2023/01/16 04:56:35;;;;;;;3.97;0.77;;;5.30;99.90;;;;;;5074021;28;20287;-83
2023/01/16 04:59:04;;;;;;;0.93;0.90;;;5.30;99.90;;;;;;5074068;28;20303;-82
2023/01/16 05:01:34;;;;;;;0.80;0.80;;;5.20;99.90;;;;;;5074214;28;20208;-82
2023/01/16 05:04:03;;;;;;;1.20;1.17;;;5.20;99.90;;;;;;5074312;28;20316;-82
2023/01/16 05:06:33;;;;;;;1.33;0.93;;;5.30;99.90;;;;;;5074093;28;20236;-82
2023/01/16 05:09:02;;;;;;;2.88;1.40;;;5.20;99.90;;;;;;5073771;28;20225;-82
2023/01/16 05:11:30;;;;;;;3.22;1.20;;;5.20;99.90;;;;;;5073944;28;20201;-82
2023/01/16 05:14:00;;;;;;;1.45;1.35;;;5.20;99.90;;;;;;5073788;28;20232;-83
2023/01/16 05:16:29;;;;;;;1.15;0.65;;;5.10;99.90;;;;;;5074248;28;20205;-82
2023/01/16 05:18:57;;;;;;;0.90;0.90;;;5.10;99.90;;;;;;5074076;28;20287;-83
2023/01/16 05:21:25;;;;;;;1.23;1.13;;;5.10;99.90;;;;;;5073922;28;20209;-82
2023/01/16 05:23:53;;;;;;;2.55;1.48;;;5.10;99.90;;;;;;5073735;28;20236;-83
2023/01/16 05:26:22;;;;;;;0.52;0.52;;;5.10;99.90;;;;;;5073411;28;20208;-83
2023/01/16 05:28:50;;;;;;;1.35;1.10;;;5.10;99.90;;;;;;5073141;28;20229;-83
2023/01/16 05:31:20;;;;;;;0.82;0.82;;;5.20;99.90;;;;;;5073715;28;20219;-83
2023/01/16 05:33:49;;;;;;;0.93;0.93;;;5.20;99.90;;;;;;5073225;28;20288;-83
2023/01/16 05:36:17;;;;;;;0.55;0.55;;;5.20;99.90;;;;;;5073759;28;20288;-82
2023/01/16 05:38:46;;;;;;;0.68;0.68;;;5.20;99.90;;;;;;5073511;28;20197;-82
2023/01/16 05:41:14;;;;;;;1.98;1.38;;;5.20;99.90;;;;;;5073610;28;20205;-81
2023/01/16 05:43:43;;;;;;;0.85;0.85;;;5.20;99.90;;;;;;5073900;28;20256;-83
2023/01/16 05:46:11;;;;;;;1.00;1.00;;;5.20;99.90;;;;;;5073530;28;20205;-82
2023/01/16 05:48:41;;;;;;;0.98;0.95;;;5.20;99.90;;;;;;5072567;28;20220;-83
2023/01/16 05:51:09;;;;;;;0.85;0.82;;;5.20;99.90;;;;;;5074246;28;20209;-84
2023/01/16 05:53:37;;;;;;;0.52;0.52;;;5.20;99.90;;;;;;5073603;28;20233;-83
2023/01/16 05:56:08;;;;;;;0.70;0.70;;;5.20;99.90;;;;;;5073708;28;20207;-84
2023/01/16 05:58:37;;;;;;;1.30;1.00;;;5.10;99.90;;;;;;5073625;28;20208;-83
2023/01/16 06:01:05;;;;;;;0.93;0.70;;;5.20;99.90;;;;;;5073258;28;20205;-83
2023/01/16 06:03:34;;;;;;;0.55;0.55;;;5.20;99.90;;;;;;5073168;28;20247;-83
2023/01/16 06:06:04;;;;;;;1.77;1.20;;;5.20;99.90;;;;;;5073366;28;20212;-84
2023/01/16 06:08:33;;;;;;;2.03;0.88;;;5.20;99.90;;;;;;5073268;28;20224;-85
2023/01/16 06:11:01;;;;;;;1.33;1.05;;;5.20;99.90;;;;;;5073512;28;20213;-85
2023/01/16 06:13:29;;;;;;;1.52;1.10;;;5.10;99.90;;;;;;5073480;28;20217;-85
2023/01/16 06:15:57;;;;;;;0.93;0.93;;;5.10;99.90;;;;;;5073558;28;20200;-85
2023/01/16 06:18:25;;;;;;;1.20;0.60;;;5.10;99.90;;;;;;5073616;28;20231;-83
2023/01/16 06:20:54;;;;;;;0.82;0.82;;;5.10;99.90;;;;;;5072317;28;20291;-81
2023/01/16 06:23:23;;;;;;;1.20;0.90;;;5.10;99.90;;;;;;5073476;28;20270;-82
2023/01/16 06:25:52;;;;;;;0.47;0.47;;;5.10;99.90;;;;;;5073365;28;20205;-81
2023/01/16 06:28:20;;;;;;;1.02;1.02;;;5.10;99.90;;;;;;5072517;28;20259;-82
2023/01/16 06:30:52;;;;;;;0.73;0.73;;;5.10;99.90;;;;;;5072680;28;20295;-81
2023/01/16 06:33:20;;;;;;;1.83;1.23;;;5.10;99.90;;;;;;5072449;28;20308;-82
2023/01/16 06:35:50;;;;;;;2.92;1.08;;;5.10;99.90;;;;;;5072464;28;20216;-81
2023/01/16 06:38:18;;;;;;;0.80;0.80;;;5.10;99.90;;;;;;5072594;28;20225;-82
2023/01/16 06:40:48;;;;;;;0.82;0.82;;;5.10;99.90;;;;;;5072561;28;20205;-82
2023/01/16 06:43:16;;;;;;;0.98;0.98;;;5.10;99.90;;;;;;5071814;28;20285;-81
2023/01/16 06:45:45;;;;;;;0.80;0.80;;;5.10;99.90;;;;;;5074013;28;20205;-82
2023/01/16 06:48:13;;;;;;;0.82;0.82;;;5.10;99.90;;;;;;5075628;28;20217;-81
2023/01/16 06:50:41;;;;;;;0.98;0.90;;;5.10;99.90;;;;;;5076298;28;20207;-82
2023/01/16 06:53:10;;;;;;;3.90;1.08;;;5.10;99.90;;;;;;5076005;28;20237;-81
2023/01/16 06:55:41;;;;;;;1.00;1.00;;;5.00;99.90;;;;;;5076062;28;20201;-81
2023/01/16 06:58:11;;;;;;;0.80;0.80;;;5.00;99.90;;;;;;5076118;28;20217;-82
2023/01/16 07:00:39;;;;;;;0.90;0.80;;;5.00;99.90;;;;;;5076346;28;20201;-82
2023/01/16 07:03:10;;;;;;;0.52;0.52;;;4.90;99.90;;;;;;5076035;28;20237;-81
2023/01/16 07:05:39;;;;;;;1.48;1.00;;;4.90;99.90;;;;;;5075868;28;20215;-81
2023/01/16 07:08:07;;;;;;;1.67;0.90;;;4.80;99.90;;;;;;5075696;28;20216;-82
2023/01/16 07:10:35;;;;;;;0.75;0.75;;;4.80;99.90;;;;;;5075675;28;20209;-82
2023/01/16 07:13:04;;;;;;;0.73;0.73;;;4.80;99.90;;;;;;5075708;28;20232;-82
2023/01/16 07:24:01;;;;;;;1.13;1.02;;;4.70;99.90;;;;;;5075496;28;20231;-81
2023/01/16 07:26:29;;;;;;;0.60;0.60;;;4.70;99.90;;;;;;5075371;28;20291;-82
2023/01/16 07:29:00;;;;;;;2.00;1.85;;;4.70;99.90;;;;;;5075175;28;20240;-82
2023/01/16 07:31:33;;;;;;;1.10;1.00;;;4.70;99.90;;;;;;5075654;28;20219;-81
2023/01/16 07:34:02;;;;;;;2.10;1.08;;;4.70;99.90;;;;;;5075298;28;20249;-82
2023/01/16 07:36:30;;;;;;;1.30;1.20;;;4.70;99.90;;;;;;5075102;28;20208;-81
2023/01/16 07:38:58;;;;;;;2.00;1.25;;;4.70;99.90;;;;;;5074793;28;20236;-81
2023/01/16 07:41:27;;;;;;;1.23;1.15;;;4.70;99.90;;;;;;5075034;28;20309;-81
2023/01/16 07:43:56;;;;;;;1.10;1.00;;;4.70;99.90;;;;;;5075480;28;20225;-81
2023/01/16 07:46:24;;;;;;;1.25;1.10;;;4.70;99.90;;;;;;5075480;28;20209;-81
2023/01/16 07:48:56;;;;;;;0.80;0.80;;;4.70;99.90;;;;;;5074798;28;20223;-81
2023/01/16 07:51:25;;;;;;;1.20;1.08;;;4.60;99.90;;;;;;5074886;28;20205;-81
2023/01/16 07:53:54;;;;;;;1.42;1.33;;;4.70;99.90;;;;;;5074695;28;20225;-82
2023/01/16 07:56:23;;;;;;;2.00;1.42;;;4.70;99.90;;;;;;5074932;28;20213;-81
2023/01/16 07:58:54;;;;;;;2.88;1.55;;;4.70;99.90;;;;;;5074930;28;20197;-81
2023/01/16 08:01:24;;;;;;;1.33;1.23;;;4.70;99.90;;;;;;5075043;28;20217;-81
2023/01/16 08:03:54;;;;;;;1.90;1.30;;;4.70;99.90;;;;;;5074402;28;20221;-82
2023/01/16 08:06:22;;;;;;;1.35;1.15;;;4.70;99.90;;;;;;5074310;28;20228;-81
2023/01/16 08:08:51;;;;;;;2.28;1.20;;;4.70;99.90;;;;;;5075020;28;20221;-82
2023/01/16 08:11:38;;;;;;;3.20;1.30;;;4.60;99.90;;;;;;5074723;28;20205;-82
2023/01/16 08:14:08;;;;;;;0.90;0.90;;;4.70;99.90;;;;;;5074619;28;20292;-81
2023/01/16 08:16:36;;;;;;;1.67;1.30;;;4.70;99.90;;;;;;5074532;28;20201;-81
2023/01/16 08:19:06;;;;;;;1.60;1.40;;;4.70;99.90;;;;;;5074182;28;20220;-81
2023/01/16 08:21:34;;;;;;;4.10;1.23;;;4.70;99.90;;;;;;5074742;28;20219;-81
2023/01/16 08:24:02;;;;;;;0.98;0.98;;;4.60;99.90;;;;;;5074291;28;20221;-82
2023/01/16 08:26:33;;;;;;;1.05;0.98;;;4.60;99.90;;;;;;5074447;28;20216;-81
2023/01/16 08:29:04;;;;;;;2.13;0.93;;;4.60;99.90;;;;;;5074405;28;20217;-81
2023/01/16 08:31:33;;;;;;;0.52;0.52;;;4.60;99.90;;;;;;5073995;28;20233;-81
2023/01/16 08:34:05;;;;;;;1.38;1.15;;;4.60;99.90;;;;;;5074040;28;20267;-81
2023/01/16 08:36:34;;;;;;;0.88;0.88;;;4.70;99.90;;;;;;5074378;28;20206;-82
2023/01/16 08:39:02;;;;;;;1.33;1.23;;;4.70;99.90;;;;;;5074328;28;20212;-82
2023/01/16 08:52:41;;;;;;;1.52;1.42;;;5.00;99.90;;;;;;5073742;28;20244;-81
2023/01/16 08:55:10;;;;;;;1.30;1.20;;;5.00;99.90;;;;;;5073699;28;20209;-81
2023/01/16 08:57:39;;;;;;;1.35;1.25;;;5.10;99.90;;;;;;5073761;28;20294;-82
2023/01/16 09:00:09;;;;;;;1.38;1.27;;;5.10;99.90;;;;;;5073733;28;20205;-82
2023/01/16 09:02:38;;;;;;;0.90;0.90;;;5.10;99.90;;;;;;5073459;28;20235;-82
2023/01/16 09:05:09;;;;;;;1.13;1.05;;;5.20;99.90;;;;;;5073881;28;20264;-82
2023/01/16 09:07:37;;;;;;;1.27;1.17;;;5.20;99.90;;;;;;5072930;28;20231;-82
2023/01/16 09:10:06;;;;;;;0.90;0.90;;;5.30;99.90;;;;;;5073162;28;20284;-81
2023/01/16 09:15:21;;;;;;;1.00;0.90;;;5.30;99.90;;;;;;5073426;28;20203;-80
2023/01/16 09:17:49;;;;;;;1.38;1.27;;;5.20;99.90;;;;;;5072739;28;20222;-81
2023/01/16 09:20:19;;;;;;;1.27;1.17;;;5.10;99.90;;;;;;5073319;28;20240;-81
2023/01/16 09:22:47;;;;;;;2.28;1.00;;;5.10;99.90;;;;;;5073053;28;20221;-81
2023/01/16 09:25:15;;;;;;;1.63;1.40;;;5.10;99.90;;;;;;5073266;28;20201;-81
2023/01/16 09:27:46;;;;;;;1.00;0.95;;;5.10;99.90;;;;;;5073495;28;20215;-81
2023/01/16 09:30:15;;;;;;;1.00;1.00;;;5.10;99.90;;;;;;5073257;28;20225;-81
2023/01/16 09:32:45;;;;;;;1.20;1.08;;;5.20;99.90;;;;;;5072837;28;20229;-80
2023/01/16 09:35:16;;;;;;;0.93;0.93;;;5.10;99.90;;;;;;5073251;28;20209;-81
2023/01/16 09:37:47;;;;;;;1.40;1.15;;;5.10;99.90;;;;;;5072787;28;20213;-80
2023/01/16 09:40:18;;;;;;;0.70;0.70;;;5.10;99.90;;;;;;5072990;28;20197;-82
2023/01/16 09:45:56;;;;;;;0.80;0.80;;;5.10;99.90;;;;;;5072997;28;20207;-82
2023/01/16 09:48:29;;;;;;;0.95;0.95;;;5.10;99.90;;;;;;5072501;28;20201;-82
2023/01/16 09:51:00;;;;;;;1.20;1.10;;;5.10;99.90;;;;;;5072728;28;20220;-82
2023/01/16 09:59:23;;;;;;;4.10;2.00;;;5.20;99.90;;;;;;5072753;28;20215;-82
2023/01/16 10:01:57;;;;;;;1.30;1.20;;;5.20;99.90;;;;;;5073202;28;20213;-82
2023/01/16 10:04:28;;;;;;;1.35;1.13;;;5.30;99.90;;;;;;5072720;28;20211;-82
2023/01/16 10:07:22;;;;;;;0.85;0.85;;;5.30;99.90;;;;;;5072556;28;20205;-81
2023/01/16 10:10:03;;;;;;;1.33;1.23;;;5.30;99.90;;;;;;5072495;28;20232;-80
2023/01/16 10:12:35;;;;;;;0.98;0.70;;;5.40;99.90;;;;;;5072433;28;20260;-80
2023/01/16 10:15:15;;;;;;;0.65;0.65;;;5.50;99.90;;;;;;5072690;28;20296;-80
2023/01/16 10:17:56;;;;;;;0.70;0.70;;;5.40;99.90;;;;;;5072257;28;20201;-81
2023/01/16 10:20:36;;;;;;;0.73;0.73;;;5.60;99.90;;;;;;5075854;28;20197;-81
2023/01/16 10:23:15;;;;;;;2.97;0.90;;;5.70;99.90;;;;;;5076478;28;20229;-81
2023/01/16 10:25:51;;;;;;;0.70;0.70;;;5.80;99.90;;;;;;5076652;28;20219;-81
2023/01/16 10:28:33;;;;;;;1.55;1.00;;;6.00;99.90;;;;;;5076140;28;20212;-81
2023/01/16 10:31:09;;;;;;;0.50;0.50;;;6.20;99.90;;;;;;5076265;28;20221;-82
2023/01/16 10:33:46;;;;;;;0.80;0.80;;;6.30;99.90;;;;;;5076446;28;20224;-81
2023/01/16 10:36:23;;;;;;;2.38;0.60;;;6.30;99.90;;;;;;5076444;28;20209;-81
2023/01/16 10:38:56;;;;;;;0.70;0.70;;;6.20;99.90;;;;;;5076160;28;20216;-81
2023/01/16 10:50:04;;;;;;;0.80;0.80;;;6.00;99.90;;;;;;5075960;28;20205;-81
2023/01/16 10:52:34;;;;;;;1.27;0.95;;;6.00;99.90;;;;;;5076104;28;20241;-81
2023/01/16 10:55:03;;;;;;;1.45;0.88;;;6.00;99.90;;;;;;5075796;28;20211;-81
2023/01/16 10:57:34;;;;;;;1.42;1.15;;;6.00;99.90;;;;;;5075964;28;20213;-81
2023/01/16 11:00:07;;;;;;;0.70;0.70;;;6.00;99.90;;;;;;5076253;28;20205;-81
2023/01/16 11:02:42;;;;;;;0.85;0.85;;;5.90;99.90;;;;;;5075898;28;20224;-80
2023/01/16 11:05:30;;;;;;;1.00;1.00;;;6.00;99.90;;;;;;5075729;28;20201;-81
2023/01/16 11:08:08;;;;;;;0.73;0.73;;;6.00;99.90;;;;;;5075638;28;20215;-81
2023/01/16 11:10:36;;;;;;;0.90;0.70;;;6.10;99.90;;;;;;5075883;28;20228;-81
2023/01/16 11:18:44;;;;;;;0.85;0.85;;;6.20;99.90;;;;;;5063406;28;20209;-81
2023/01/16 11:21:18;;;;;;;0.65;0.65;;;6.00;99.90;;;;;;5075373;28;20205;-81
2023/01/16 11:23:49;;;;;;;0.57;0.57;;;6.10;99.90;;;;;;5075053;28;20221;-80
2023/01/16 11:26:18;;;;;;;0.57;0.57;;;6.30;99.90;;;;;;5075682;28;20205;-81
2023/01/16 11:28:55;;;;;;;0.60;0.60;;;6.70;99.90;;;;;;5075166;28;20215;-81
2023/01/16 11:31:30;;;;;;;1.08;1.00;;;6.80;99.90;;;;;;5074632;28;20229;-81
2023/01/16 11:34:01;;;;;;;0.68;0.68;;;6.70;99.90;;;;;;5075108;28;20232;-81
2023/01/16 11:36:33;;;;;;;1.00;0.75;;;6.60;99.90;;;;;;5075560;28;20237;-81
2023/01/16 11:39:01;;;;;;;1.13;0.80;;;6.50;99.90;;;;;;5075050;28;20291;-81
2023/01/16 11:41:35;;;;;;;0.95;0.95;;;6.40;99.90;;;;;;5075334;28;20201;-81
2023/01/16 11:47:14;;;;;;;2.03;1.67;;;6.40;99.90;;;;;;5074665;28;20204;-81
2023/01/16 11:49:47;;;;;;;1.15;1.05;;;6.40;99.90;;;;;;5074842;28;20208;-81
2023/01/16 11:52:26;;;;;;;2.05;1.13;;;6.30;99.90;;;;;;5074940;28;20243;-80
2023/01/16 11:54:56;;;;;;;1.20;1.20;;;6.00;99.90;;;;;;5075233;28;20216;-81
2023/01/16 11:57:39;;;;;;;1.23;1.15;;;5.80;99.90;;;;;;5074690;28;20215;-81
2023/01/16 12:00:41;;;;;;;1.40;1.30;;;5.80;99.90;;;;;;5074974;28;20215;-80
2023/01/16 12:03:39;;;;;;;3.17;1.77;;;5.70;99.90;;;;;;5074595;28;20235;-80
2023/01/16 12:06:20;;;;;;;1.75;1.65;;;5.70;99.90;;;;;;5074642;28;20294;-80
2023/01/16 12:09:24;;;;;;;1.60;1.50;;;5.70;99.90;;;;;;5074217;28;20277;-81
2023/01/16 12:15:02;;;;;;;1.77;1.67;;;5.60;99.90;;;;;;5074374;28;20209;-81
2023/01/16 12:17:52;;;;;;;2.08;1.67;;;5.60;99.90;;;;;;5074381;28;20197;-81
2023/01/16 12:20:28;;;;;;;1.90;1.75;;;5.80;99.90;;;;;;5074750;28;20255;-80
2023/01/16 12:23:14;;;;;;;2.35;1.70;;;6.20;99.90;;;;;;5074660;28;20224;-81
2023/01/16 12:25:54;;;;;;;3.22;2.30;;;6.10;99.90;;;;;;5074248;28;20215;-80
2023/01/16 12:28:34;;;;;;;2.20;1.63;;;6.00;99.90;;;;;;5074109;28;20200;-80
2023/01/16 12:31:34;;;;;;;2.28;2.08;;;5.90;99.90;;;;;;5074067;28;20232;-80
2023/01/16 12:34:27;;;;;;;2.33;2.10;;;5.70;99.90;;;;;;5074145;28;20267;-80
2023/01/16 12:37:10;;;;;;;2.42;2.22;;;5.50;99.90;;;;;;5073744;28;20317;-81
2023/01/16 12:39:48;;;;;;;2.03;1.92;;;5.40;99.90;;;;;;5073980;28;20209;-80
2023/01/16 12:45:24;;;;;;;1.77;1.67;;;5.40;99.90;;;;;;5074084;28;20216;-81
2023/01/16 12:48:04;;;;;;;2.97;2.33;;;5.30;99.90;;;;;;5073504;28;20239;-81
2023/01/16 12:50:44;;;;;;;4.00;1.73;;;5.30;99.90;;;;;;5073879;28;20205;-81
2023/01/16 12:53:37;;;;;;;1.85;1.75;;;5.20;99.90;;;;;;5073542;28;20233;-81
2023/01/16 12:56:27;;;;;;;1.38;1.27;;;5.20;99.90;;;;;;5073289;28;20209;-81
2023/01/16 12:59:02;;;;;;;1.40;1.30;;;5.20;99.90;;;;;;5074043;28;20227;-82
2023/01/16 13:01:35;;;;;;;1.10;1.10;;;5.10;99.90;;;;;;5073704;28;20215;-81
2023/01/16 13:04:12;;;;;;;2.22;1.50;;;5.10;99.90;;;;;;5073117;28;20239;-81
2023/01/16 13:06:47;;;;;;;2.88;1.27;;;5.10;99.90;;;;;;5073234;28;20312;-81
2023/01/16 13:09:23;;;;;;;0.98;0.98;;;5.10;99.90;;;;;;5073471;28;20205;-81
2023/01/16 13:14:57;;;;;;;1.33;1.27;;;5.20;99.90;;;;;;5073357;28;20214;-82
2023/01/16 13:17:32;;;;;;;0.80;0.80;;;5.20;99.90;;;;;;5073281;28;20216;-81
2023/01/16 13:20:04;;;;;;;1.23;1.13;;;5.20;99.90;;;;;;5073435;28;20211;-81
2023/01/16 13:22:42;;;;;;;0.82;0.60;;;5.10;99.90;;;;;;5073156;28;20229;-81
2023/01/16 13:25:19;;;;;;;2.42;0.80;;;5.10;99.90;;;;;;5073246;28;20232;-81
2023/01/16 13:27:54;;;;;;;1.00;0.82;;;5.00;99.90;;;;;;5072988;28;20224;-81
2023/01/16 13:30:23;;;;;;;1.70;0.90;;;5.00;99.90;;;;;;5073185;28;20204;-81
2023/01/16 13:32:56;;;;;;;1.27;1.17;;;5.10;99.90;;;;;;5073087;28;20236;-80
2023/01/16 13:35:28;;;;;;;13.57;2.72;;;5.10;99.90;;;;;;5072948;28;20201;-82
2023/01/16 13:38:22;;;;;;;1.30;1.27;;;5.10;99.90;;;;;;5072929;28;20216;-81
2023/01/16 13:41:14;;;;;;;0.45;0.45;;;5.10;99.90;;;;;;5073242;28;20230;-82
2023/01/16 13:46:35;;;;;;;0.57;0.57;;;5.10;99.90;;;;;;5073349;28;20288;-81
2023/01/16 13:49:06;;;;;;;1.20;1.10;;;5.00;99.90;;;;;;5072482;28;20221;-81
2023/01/16 13:51:42;;;;;;;1.50;1.40;;;5.00;99.90;;;;;;5073096;28;20215;-81
2023/01/16 13:54:17;;;;;;;2.22;1.20;;;4.90;99.90;;;;;;5072368;28;20224;-81
2023/01/16 13:56:57;;;;;;;1.55;1.10;;;4.90;99.90;;;;;;5072501;28;20204;-81
2023/01/16 13:59:44;;;;;;;1.02;1.02;;;4.80;99.90;;;;;;5072898;28;20215;-81
2023/01/16 14:02:41;;;;;;;1.40;1.20;;;4.80;99.90;;;;;;5072711;28;20229;-81
2023/01/16 14:05:23;;;;;;;1.42;1.33;;;4.70;99.90;;;;;;5038399;28;20205;-80
2023/01/16 14:11:30;;;;;;;1.88;1.70;;;4.70;99.90;;;;;;5072369;28;20215;-81
2023/01/16 14:18:10;;;;;;;1.77;1.67;;;4.60;99.90;;;;;;5010904;28;20217;-81
2023/01/16 14:20:44;;;;;;;1.42;1.33;;;4.60;99.90;;;;;;4996688;28;20211;-81
2023/01/16 14:26:09;;;;;;;1.60;1.50;;;4.40;99.90;;;;;;5072416;28;20209;-81
2023/01/16 14:28:41;;;;;;;2.13;1.75;;;4.40;99.90;;;;;;5071951;28;20207;-80
2023/01/16 14:31:24;;;;;;;2.17;1.77;;;4.40;99.90;;;;;;5072213;28;20211;-80
2023/01/16 14:33:57;;;;;;;1.63;1.52;;;4.40;99.90;;;;;;5071103;28;20221;-85
2023/01/16 14:36:28;;;;;;;1.77;1.67;;;4.50;99.90;;;;;;5072313;28;20205;-84
2023/01/16 14:38:57;;;;;;;2.17;2.00;;;4.50;99.90;;;;;;5072126;28;20285;-80
2023/01/16 14:56:15;;;;;;;2.38;1.52;;;4.30;99.90;;;;;;5072862;28;20287;-81
2023/01/16 14:58:50;;;;;;;2.20;2.03;;;4.30;99.90;;;;;;5071952;28;20200;-81